Time;durP1;ratioP1;P1;durP2;ratioP2;P2;SDS_P1;SDS_P2;PMS_P1;PMS_P2;Temp;Humidity;BMP_temperature;BMP_pressure;BME280_temperature;BME280_humidity;BME280_pressure;Samples;Min_cycle;Max_cycle;Signal;HPM_P1;HPM_P2
2021/08/19 00:01:16;;;;;;;4.55;2.80;;;21.60;76.50;;;;;;5035501;28;20082;-60
2021/08/19 00:03:42;;;;;;;4.72;3.05;;;21.50;76.10;;;;;;5043750;28;20028;-60
2021/08/19 00:06:07;;;;;;;6.57;2.97;;;21.50;75.80;;;;;;5045702;28;20728;-60
2021/08/19 00:08:33;;;;;;;6.53;2.70;;;21.50;76.00;;;;;;5043003;28;20062;-60
2021/08/19 00:10:58;;;;;;;8.02;2.80;;;21.50;76.00;;;;;;5063160;28;20020;-60
2021/08/19 00:13:24;;;;;;;6.93;2.40;;;21.50;76.10;;;;;;5024701;28;20037;-60
2021/08/19 00:15:50;;;;;;;4.90;2.58;;;21.50;76.10;;;;;;5060962;28;20064;-60
2021/08/19 00:18:16;;;;;;;7.38;2.72;;;21.50;76.20;;;;;;5046112;28;20044;-60
2021/08/19 00:20:41;;;;;;;5.57;2.60;;;21.40;76.20;;;;;;5043377;28;20025;-60
2021/08/19 00:23:07;;;;;;;5.97;2.53;;;21.40;76.20;;;;;;5040343;28;20036;-61
2021/08/19 00:25:32;;;;;;;4.95;2.40;;;21.40;77.00;;;;;;5057870;28;20032;-60
2021/08/19 00:27:58;;;;;;;5.68;2.42;;;21.40;76.40;;;;;;5028132;28;20047;-60
2021/08/19 00:30:24;;;;;;;5.18;2.55;;;21.40;76.40;;;;;;5045975;28;20074;-60
2021/08/19 00:32:49;;;;;;;3.30;2.30;;;21.40;76.50;;;;;;5044757;28;20492;-59
2021/08/19 00:35:15;;;;;;;3.80;2.55;;;21.30;76.60;;;;;;5023584;28;20429;-61
2021/08/19 00:37:40;;;;;;;5.43;2.90;;;21.30;76.70;;;;;;5061462;28;20060;-60
2021/08/19 00:40:06;;;;;;;4.22;3.25;;;21.30;76.70;;;;;;5022414;28;20029;-60
2021/08/19 00:42:32;;;;;;;4.72;3.40;;;21.30;76.80;;;;;;5047373;28;20029;-60
2021/08/19 00:44:58;;;;;;;5.70;3.55;;;21.30;76.80;;;;;;5025970;28;20026;-61
2021/08/19 00:47:26;;;;;;;8.45;4.00;;;21.30;76.80;;;;;;5043599;28;20082;-61
2021/08/19 00:49:52;;;;;;;5.55;3.90;;;21.30;76.80;;;;;;5038772;28;20566;-61
2021/08/19 00:52:17;;;;;;;4.45;3.63;;;21.30;76.80;;;;;;5026773;28;20251;-60
2021/08/19 00:54:43;;;;;;;5.18;4.25;;;21.30;76.80;;;;;;5043606;28;20437;-61
2021/08/19 00:57:08;;;;;;;8.85;4.38;;;21.30;76.80;;;;;;5026323;28;20404;-61
2021/08/19 00:59:37;;;;;;;7.20;3.95;;;21.20;76.70;;;;;;5060900;28;20500;-61
2021/08/19 01:02:03;;;;;;;9.45;4.07;;;21.30;76.80;;;;;;5033226;28;20025;-60
2021/08/19 01:04:30;;;;;;;6.82;4.05;;;21.20;76.80;;;;;;5026736;28;20383;-61
2021/08/19 01:06:55;;;;;;;7.90;3.50;;;21.20;76.80;;;;;;5030850;28;20123;-60
2021/08/19 01:09:21;;;;;;;5.07;3.35;;;21.20;76.90;;;;;;5027961;28;20035;-61
2021/08/19 01:11:46;;;;;;;4.43;3.40;;;21.20;76.80;;;;;;5023322;28;20029;-61
2021/08/19 01:14:15;;;;;;;5.43;3.28;;;21.20;76.80;;;;;;5057079;28;20595;-61
2021/08/19 01:16:42;;;;;;;4.88;3.45;;;21.20;76.90;;;;;;5046875;28;20616;-60
2021/08/19 01:19:07;;;;;;;4.90;3.22;;;21.20;77.00;;;;;;5024739;28;20025;-61
2021/08/19 01:21:33;;;;;;;9.50;3.15;;;21.20;76.90;;;;;;5041409;28;20024;-60
2021/08/19 01:23:58;;;;;;;7.22;2.90;;;21.20;76.90;;;;;;5047650;28;20039;-61
2021/08/19 01:26:24;;;;;;;4.80;2.65;;;21.20;77.00;;;;;;5021720;28;20025;-60
2021/08/19 01:28:49;;;;;;;5.78;3.00;;;21.20;77.00;;;;;;5021722;28;20055;-60
2021/08/19 01:31:18;;;;;;;5.63;2.88;;;21.20;77.00;;;;;;5049014;28;20332;-61
2021/08/19 01:33:45;;;;;;;5.03;2.85;;;21.20;77.10;;;;;;5026273;28;20056;-61
2021/08/19 01:36:11;;;;;;;4.88;2.90;;;21.20;77.20;;;;;;5042796;28;20028;-61
2021/08/19 01:38:36;;;;;;;6.95;2.67;;;21.10;77.20;;;;;;5041689;28;20037;-61
2021/08/19 01:41:02;;;;;;;10.90;2.65;;;21.10;77.30;;;;;;5046864;28;20124;-61
2021/08/19 01:43:28;;;;;;;11.13;2.67;;;21.10;77.40;;;;;;5043807;28;20099;-61
2021/08/19 01:46:14;;;;;;;6.57;2.65;;;21.10;77.40;;;;;;5024157;28;20471;-60
2021/08/19 01:48:40;;;;;;;3.20;2.55;;;21.10;77.50;;;;;;5039290;28;20035;-60
2021/08/19 01:51:06;;;;;;;9.55;2.72;;;21.10;77.50;;;;;;5039680;28;20472;-61
2021/08/19 01:53:31;;;;;;;8.13;2.75;;;21.10;77.60;;;;;;5027044;28;20043;-61
2021/08/19 01:55:57;;;;;;;6.82;2.95;;;21.10;77.60;;;;;;5042916;28;20037;-60
2021/08/19 01:58:23;;;;;;;4.82;2.55;;;21.10;77.70;;;;;;5006604;28;20048;-62
2021/08/19 02:00:48;;;;;;;4.10;2.53;;;21.00;77.60;;;;;;5024669;28;20751;-61
2021/08/19 02:03:14;;;;;;;4.88;2.50;;;21.00;77.50;;;;;;5039733;28;20108;-61
2021/08/19 02:05:40;;;;;;;3.50;2.30;;;21.00;77.50;;;;;;5042989;28;20036;-61
2021/08/19 02:08:06;;;;;;;5.43;2.47;;;21.00;77.50;;;;;;5030096;28;20043;-61
2021/08/19 02:10:32;;;;;;;5.07;2.20;;;21.00;77.50;;;;;;5025551;28;20201;-61
2021/08/19 02:12:58;;;;;;;4.65;2.55;;;21.00;77.70;;;;;;5043736;28;20036;-61
2021/08/19 02:15:23;;;;;;;4.63;3.05;;;21.00;77.70;;;;;;5015055;28;20021;-61
2021/08/19 02:17:49;;;;;;;5.18;2.83;;;21.00;77.70;;;;;;5021497;28;20051;-61
2021/08/19 02:20:14;;;;;;;4.95;2.50;;;21.00;77.80;;;;;;5039366;28;20589;-61
2021/08/19 02:22:40;;;;;;;3.95;2.65;;;21.00;77.90;;;;;;5025006;28;20041;-61
2021/08/19 02:25:05;;;;;;;4.85;2.67;;;21.00;77.90;;;;;;5057713;28;20032;-60
2021/08/19 02:27:31;;;;;;;7.53;3.08;;;21.00;78.00;;;;;;5060803;28;20017;-60
2021/08/19 02:29:57;;;;;;;8.27;3.03;;;21.00;78.00;;;;;;5020672;28;20124;-61
2021/08/19 02:32:23;;;;;;;5.35;2.80;;;20.90;78.00;;;;;;5042520;28;20063;-60
2021/08/19 02:34:51;;;;;;;3.55;2.42;;;21.00;78.10;;;;;;5062279;28;20037;-61
2021/08/19 02:37:16;;;;;;;2.97;2.63;;;20.90;78.10;;;;;;5065391;28;20081;-60
2021/08/19 02:39:42;;;;;;;2.83;2.30;;;20.90;78.10;;;;;;5050254;28;20369;-61
2021/08/19 02:42:07;;;;;;;3.72;2.45;;;20.90;78.20;;;;;;5028366;28;20038;-61
2021/08/19 02:44:33;;;;;;;3.00;2.40;;;20.90;78.30;;;;;;5061319;28;20368;-61
2021/08/19 02:46:58;;;;;;;6.85;2.42;;;20.90;78.30;;;;;;5022265;28;20381;-61
2021/08/19 02:49:24;;;;;;;6.07;2.60;;;20.90;78.30;;;;;;5009425;28;20021;-61
2021/08/19 02:51:49;;;;;;;3.03;2.13;;;20.90;78.30;;;;;;5024387;28;20020;-61
2021/08/19 02:54:15;;;;;;;5.38;2.85;;;20.90;78.30;;;;;;5063119;28;20108;-60
2021/08/19 02:56:41;;;;;;;10.70;2.65;;;20.90;78.30;;;;;;5060580;28;20364;-60
2021/08/19 02:59:06;;;;;;;2.47;2.25;;;20.90;78.30;;;;;;5037407;28;20075;-61
2021/08/19 03:01:32;;;;;;;3.83;2.20;;;20.90;78.40;;;;;;5058435;28;20268;-61
2021/08/19 03:03:57;;;;;;;5.28;2.35;;;20.90;78.40;;;;;;5039020;28;20368;-61
2021/08/19 03:06:23;;;;;;;2.97;2.00;;;20.90;78.40;;;;;;5060773;28;20025;-61
2021/08/19 03:08:48;;;;;;;5.10;2.10;;;20.90;78.50;;;;;;5037790;28;20032;-61
2021/08/19 03:11:14;;;;;;;3.92;2.30;;;20.90;78.50;;;;;;5020242;28;20040;-60
2021/08/19 03:13:39;;;;;;;3.78;2.30;;;20.80;78.60;;;;;;5042810;28;20052;-60
2021/08/19 03:16:05;;;;;;;5.63;2.17;;;20.90;78.70;;;;;;5070869;28;20451;-60
2021/08/19 03:18:30;;;;;;;3.97;2.28;;;20.80;78.70;;;;;;5029429;28;20049;-60
2021/08/19 03:20:56;;;;;;;4.47;2.20;;;20.80;78.70;;;;;;5041655;28;20043;-60
2021/08/19 03:23:24;;;;;;;4.63;2.20;;;20.80;78.80;;;;;;5043691;28;20048;-61
2021/08/19 03:25:49;;;;;;;3.92;2.28;;;20.80;78.80;;;;;;5044407;28;20028;-61
2021/08/19 03:28:15;;;;;;;3.17;2.30;;;20.80;78.90;;;;;;5044959;28;20028;-61
2021/08/19 03:30:42;;;;;;;3.55;2.20;;;20.80;78.90;;;;;;5033171;28;20067;-60
2021/08/19 03:33:07;;;;;;;3.78;2.03;;;20.70;78.90;;;;;;5043226;28;20063;-61
2021/08/19 03:35:33;;;;;;;2.20;1.98;;;20.80;79.00;;;;;;5043197;28;20120;-60
2021/08/19 03:37:58;;;;;;;4.40;2.38;;;20.70;79.00;;;;;;5026873;28;20460;-61
2021/08/19 03:40:24;;;;;;;2.47;1.90;;;20.70;79.70;;;;;;5045229;28;20247;-60
2021/08/19 03:42:49;;;;;;;23.85;3.78;;;20.70;79.10;;;;;;5062449;28;20617;-61
2021/08/19 03:45:19;;;;;;;36.67;4.93;;;20.70;79.10;;;;;;5060358;28;20028;-60
2021/08/19 03:47:46;;;;;;;53.33;5.80;;;20.70;79.10;;;;;;5065987;28;20139;-61
2021/08/19 03:50:11;;;;;;;47.67;5.90;;;20.70;79.10;;;;;;5027737;28;20414;-61
2021/08/19 03:52:37;;;;;;;52.42;5.57;;;20.70;79.10;;;;;;5024238;28;20038;-61
2021/08/19 03:55:03;;;;;;;51.05;5.22;;;20.70;79.20;;;;;;5050257;28;20517;-60
2021/08/19 03:57:28;;;;;;;47.50;5.43;;;20.70;79.20;;;;;;5026718;28;20128;-61
2021/08/19 03:59:54;;;;;;;45.15;5.82;;;20.70;79.00;;;;;;5050271;28;20021;-60
2021/08/19 04:02:20;;;;;;;44.63;5.03;;;20.70;79.10;;;;;;5036409;28;20444;-60
2021/08/19 04:04:45;;;;;;;33.15;4.68;;;20.70;79.10;;;;;;5028395;28;20059;-60
2021/08/19 04:07:11;;;;;;;32.65;5.07;;;20.70;79.20;;;;;;5013193;28;20244;-60
2021/08/19 04:09:36;;;;;;;29.85;4.15;;;20.70;79.20;;;;;;5065346;28;20118;-60
2021/08/19 04:12:02;;;;;;;34.88;4.90;;;20.70;79.10;;;;;;5043226;28;20052;-61
2021/08/19 04:14:27;;;;;;;28.25;4.32;;;20.70;79.10;;;;;;5046612;28;20268;-60
2021/08/19 04:16:53;;;;;;;32.08;4.53;;;20.70;79.10;;;;;;5044072;28;20101;-61
2021/08/19 04:19:18;;;;;;;31.25;4.22;;;20.70;79.10;;;;;;5045070;28;20120;-61
2021/08/19 04:21:44;;;;;;;31.50;3.97;;;20.70;79.20;;;;;;5023015;28;20033;-61
2021/08/19 04:24:09;;;;;;;26.67;3.50;;;20.70;79.40;;;;;;5027057;28;20025;-61
2021/08/19 04:26:35;;;;;;;36.35;5.82;;;20.70;79.40;;;;;;5038752;28;20108;-61
2021/08/19 04:29:00;;;;;;;43.42;5.20;;;20.70;79.50;;;;;;5033074;28;20109;-61
2021/08/19 04:31:26;;;;;;;24.88;3.92;;;20.60;79.40;;;;;;5053276;28;20122;-61
2021/08/19 04:33:51;;;;;;;31.38;4.85;;;20.60;79.40;;;;;;5059900;28;20497;-61
2021/08/19 04:36:17;;;;;;;36.50;5.25;;;20.60;79.40;;;;;;5059266;28;20056;-61
2021/08/19 04:38:43;;;;;;;39.65;5.47;;;20.70;79.40;;;;;;5058856;28;20135;-60
2021/08/19 04:41:08;;;;;;;79.38;6.30;;;20.60;79.40;;;;;;5040887;28;20512;-61
2021/08/19 04:43:33;;;;;;;96.15;8.48;;;20.60;79.30;;;;;;5065517;28;20016;-60
2021/08/19 04:45:59;;;;;;;113.93;8.88;;;20.60;79.40;;;;;;5040813;28;20032;-61
2021/08/19 04:48:25;;;;;;;109.15;9.73;;;20.60;79.60;;;;;;5010013;28;20440;-61
2021/08/19 04:50:50;;;;;;;106.95;8.98;;;20.60;79.70;;;;;;5042227;28;20099;-61
2021/08/19 04:53:16;;;;;;;111.75;9.68;;;20.60;80.10;;;;;;5024099;28;20064;-60
2021/08/19 04:55:41;;;;;;;84.00;8.15;;;20.60;80.00;;;;;;5044782;28;20335;-61
2021/08/19 04:58:07;;;;;;;80.63;8.55;;;20.60;80.00;;;;;;5044795;28;20101;-61
2021/08/19 05:00:32;;;;;;;76.22;7.55;;;20.60;80.00;;;;;;5060126;28;20214;-61
2021/08/19 05:02:58;;;;;;;92.03;7.57;;;20.60;80.00;;;;;;5010481;28;20032;-61
2021/08/19 05:05:23;;;;;;;93.82;9.55;;;20.60;79.90;;;;;;5040484;28;20756;-61
2021/08/19 05:07:49;;;;;;;84.38;8.93;;;20.50;79.80;;;;;;5040305;28;20171;-61
2021/08/19 05:10:14;;;;;;;107.10;9.85;;;20.60;79.80;;;;;;5058515;28;20107;-60
2021/08/19 05:12:40;;;;;;;89.30;8.07;;;20.60;79.90;;;;;;5042602;28;20507;-60
2021/08/19 05:15:06;;;;;;;66.43;7.43;;;20.50;79.80;;;;;;5059812;28;20029;-61
2021/08/19 05:17:31;;;;;;;84.60;8.75;;;20.60;79.90;;;;;;5012666;28;20075;-61
2021/08/19 05:19:57;;;;;;;82.82;8.10;;;20.60;80.00;;;;;;5029960;28;20401;-61
2021/08/19 05:22:22;;;;;;;50.80;6.30;;;20.60;80.00;;;;;;5032401;28;20028;-60
2021/08/19 05:24:48;;;;;;;52.72;6.10;;;20.50;79.90;;;;;;5061343;28;20113;-61
2021/08/19 05:27:13;;;;;;;66.97;6.68;;;20.50;79.90;;;;;;5030876;28;20127;-60
2021/08/19 05:29:39;;;;;;;64.47;6.45;;;20.60;79.80;;;;;;5057418;28;20024;-60
2021/08/19 05:32:04;;;;;;;57.22;7.40;;;20.60;79.80;;;;;;5049638;28;20162;-60
2021/08/19 05:34:30;;;;;;;54.25;6.75;;;20.60;79.90;;;;;;5030673;28;20039;-61
2021/08/19 05:36:55;;;;;;;48.33;5.43;;;20.50;79.90;;;;;;5025710;28;20032;-60
2021/08/19 05:39:21;;;;;;;46.13;4.97;;;20.50;79.90;;;;;;5028709;28;20060;-61
2021/08/19 05:41:46;;;;;;;61.53;6.35;;;20.50;79.90;;;;;;5054462;28;20070;-60
2021/08/19 05:44:12;;;;;;;41.10;4.78;;;20.50;79.80;;;;;;5032108;28;20521;-61
2021/08/19 05:46:39;;;;;;;47.75;5.57;;;20.50;79.80;;;;;;5022277;28;20094;-61
2021/08/19 05:49:04;;;;;;;38.70;5.68;;;20.50;79.90;;;;;;5025349;28;20418;-61
2021/08/19 05:51:30;;;;;;;39.38;5.53;;;20.50;79.90;;;;;;5027423;28;20108;-60
2021/08/19 05:53:55;;;;;;;49.47;6.15;;;20.50;79.90;;;;;;5024853;28;20031;-61
2021/08/19 05:56:21;;;;;;;32.25;4.50;;;20.50;79.90;;;;;;5040165;28;20386;-61
2021/08/19 05:58:46;;;;;;;33.88;5.05;;;20.50;79.90;;;;;;5041286;28;20067;-61
2021/08/19 06:01:12;;;;;;;42.00;4.95;;;20.50;79.90;;;;;;5027018;28;20033;-60
2021/08/19 06:03:37;;;;;;;40.00;4.90;;;20.50;79.90;;;;;;5040219;28;20108;-60
2021/08/19 06:06:03;;;;;;;36.60;4.82;;;20.50;80.00;;;;;;5042274;28;20522;-60
2021/08/19 06:08:28;;;;;;;30.83;4.40;;;20.50;79.90;;;;;;5024131;28;20016;-61
2021/08/19 06:10:54;;;;;;;25.65;4.40;;;20.50;79.90;;;;;;5043869;28;20039;-61
2021/08/19 06:13:19;;;;;;;31.90;3.85;;;20.50;79.80;;;;;;5028021;28;20100;-61
2021/08/19 06:15:45;;;;;;;35.50;4.28;;;20.50;79.70;;;;;;5032988;28;20141;-60
2021/08/19 06:18:11;;;;;;;34.03;4.57;;;20.50;79.70;;;;;;5045697;28;20084;-60
2021/08/19 06:20:36;;;;;;;21.52;3.83;;;20.50;79.70;;;;;;5039163;28;20461;-60
2021/08/19 06:23:02;;;;;;;30.17;3.95;;;20.50;79.70;;;;;;5044697;28;20048;-60
2021/08/19 06:25:27;;;;;;;34.42;3.85;;;20.50;79.60;;;;;;5040378;28;20116;-61
2021/08/19 06:27:54;;;;;;;28.08;3.67;;;20.50;79.70;;;;;;5042513;28;20040;-61
2021/08/19 06:30:19;;;;;;;20.83;3.58;;;20.50;79.60;;;;;;5042203;28;20484;-61
2021/08/19 06:32:45;;;;;;;25.23;3.67;;;20.50;79.70;;;;;;5010585;28;20028;-60
2021/08/19 06:35:10;;;;;;;13.40;3.03;;;20.50;79.60;;;;;;5047583;28;20048;-60
2021/08/19 06:37:37;;;;;;;18.85;3.70;;;20.50;79.60;;;;;;5052769;28;20055;-60
2021/08/19 06:40:02;;;;;;;14.93;3.13;;;20.50;79.70;;;;;;5039736;28;20029;-61
2021/08/19 06:42:28;;;;;;;14.27;3.38;;;20.50;79.70;;;;;;5024502;28;20016;-61
2021/08/19 06:44:53;;;;;;;8.35;3.00;;;20.50;79.70;;;;;;5039761;28;20124;-61
2021/08/19 06:47:19;;;;;;;13.00;2.75;;;20.60;79.70;;;;;;5038930;28;20045;-61
2021/08/19 06:49:46;;;;;;;11.27;2.50;;;20.60;79.60;;;;;;5025503;28;20044;-60
2021/08/19 06:52:11;;;;;;;9.23;2.35;;;20.60;79.50;;;;;;5030363;28;20070;-60
2021/08/19 06:54:37;;;;;;;12.25;2.97;;;20.60;79.50;;;;;;5040360;28;20158;-60
2021/08/19 06:57:03;;;;;;;15.07;3.00;;;20.60;79.40;;;;;;5029124;28;20044;-61
2021/08/19 06:59:29;;;;;;;12.65;2.50;;;20.60;79.50;;;;;;5031351;28;20060;-60
2021/08/19 07:01:54;;;;;;;11.07;2.90;;;20.60;79.50;;;;;;5045767;28;20064;-60
2021/08/19 07:04:20;;;;;;;11.88;2.80;;;20.70;79.50;;;;;;5059667;28;20481;-61
2021/08/19 07:06:46;;;;;;;11.90;2.63;;;20.70;80.00;;;;;;5062992;28;20630;-61
2021/08/19 07:09:12;;;;;;;10.13;3.22;;;20.70;80.30;;;;;;5046294;28;20032;-61
2021/08/19 07:11:37;;;;;;;7.47;2.28;;;20.60;80.40;;;;;;5047061;28;20051;-61
2021/08/19 07:14:03;;;;;;;7.82;2.22;;;20.60;80.40;;;;;;5041977;28;20040;-61
2021/08/19 07:16:29;;;;;;;13.13;2.70;;;20.60;80.50;;;;;;5045337;28;20048;-61
2021/08/19 07:18:54;;;;;;;20.58;3.13;;;20.50;80.60;;;;;;5012299;28;20071;-60
2021/08/19 07:21:20;;;;;;;27.35;2.92;;;20.50;80.70;;;;;;5030469;28;20404;-60
2021/08/19 07:23:45;;;;;;;25.85;3.15;;;20.40;80.70;;;;;;5024000;28;20029;-61
2021/08/19 07:26:11;;;;;;;27.17;3.22;;;20.40;81.60;;;;;;5035362;28;20043;-60
2021/08/19 07:28:36;;;;;;;27.52;4.22;;;20.40;81.00;;;;;;5033317;28;20113;-61
2021/08/19 07:31:02;;;;;;;18.55;3.40;;;20.40;81.20;;;;;;5039711;28;21157;-61
2021/08/19 07:33:27;;;;;;;13.93;3.00;;;20.30;81.30;;;;;;5008245;28;20040;-60
2021/08/19 07:35:53;;;;;;;12.38;2.90;;;20.40;81.50;;;;;;5040477;28;20028;-61
2021/08/19 07:38:19;;;;;;;10.80;2.55;;;20.30;81.60;;;;;;5044908;28;20036;-61
2021/08/19 07:40:45;;;;;;;19.83;4.88;;;20.40;81.80;;;;;;5050773;28;20133;-61
2021/08/19 07:43:10;;;;;;;16.17;3.17;;;20.30;82.00;;;;;;5026903;28;20047;-61
2021/08/19 07:45:36;;;;;;;12.07;2.92;;;20.30;82.00;;;;;;5044099;28;20548;-60
2021/08/19 07:48:09;;;;;;;28.77;3.97;;;20.40;82.20;;;;;;5043223;28;20039;-61
2021/08/19 07:50:34;;;;;;;18.45;3.47;;;20.40;82.40;;;;;;5018605;28;21539;-60
2021/08/19 07:53:00;;;;;;;26.90;3.95;;;20.40;82.10;;;;;;5025441;28;20017;-61
2021/08/19 07:55:25;;;;;;;18.38;4.00;;;20.40;82.00;;;;;;5038732;28;20087;-60
2021/08/19 07:57:51;;;;;;;18.95;3.78;;;20.40;82.10;;;;;;5059694;28;20075;-61
2021/08/19 08:00:21;;;;;;;22.60;3.75;;;20.40;81.90;;;;;;5059058;28;20530;-61
2021/08/19 08:02:47;;;;;;;21.15;3.60;;;20.40;81.80;;;;;;5023961;28;20036;-61
2021/08/19 08:05:13;;;;;;;19.05;3.65;;;20.50;81.60;;;;;;5027528;28;20792;-61
2021/08/19 08:07:38;;;;;;;34.38;4.35;;;20.50;81.50;;;;;;5028918;28;20043;-60
2021/08/19 08:10:06;;;;;;;43.97;6.10;;;20.50;81.40;;;;;;5051417;28;20047;-61
2021/08/19 08:12:32;;;;;;;45.95;6.47;;;20.50;81.40;;;;;;5039228;28;21176;-61
2021/08/19 08:14:57;;;;;;;44.22;5.53;;;20.50;81.30;;;;;;5018360;28;20082;-61
2021/08/19 08:17:23;;;;;;;39.33;6.05;;;20.60;81.30;;;;;;5008306;28;20154;-61
2021/08/19 08:19:48;;;;;;;48.20;5.78;;;20.60;81.20;;;;;;5041004;28;20082;-60
2021/08/19 08:22:14;;;;;;;30.35;5.35;;;20.60;81.20;;;;;;5039076;28;20068;-61
2021/08/19 08:24:40;;;;;;;60.70;6.30;;;20.70;80.90;;;;;;5014088;28;20032;-60
2021/08/19 08:27:05;;;;;;;104.28;10.40;;;20.70;80.90;;;;;;5019947;28;20614;-61
2021/08/19 08:29:32;;;;;;;64.30;7.88;;;20.70;80.90;;;;;;5022941;28;20036;-60
2021/08/19 08:32:01;;;;;;;65.55;7.13;;;20.80;80.70;;;;;;5005193;28;20029;-61
2021/08/19 08:34:27;;;;;;;53.35;6.30;;;20.70;80.40;;;;;;5013499;28;20041;-61
2021/08/19 08:36:53;;;;;;;69.05;8.93;;;20.80;80.40;;;;;;4998596;28;20063;-61
2021/08/19 08:39:19;;;;;;;68.13;9.10;;;20.80;80.30;;;;;;5039895;28;20030;-61
2021/08/19 08:41:45;;;;;;;62.90;8.38;;;20.80;80.10;;;;;;5007340;28;20476;-61
2021/08/19 08:44:10;;;;;;;64.00;7.93;;;20.80;79.80;;;;;;5041604;28;20403;-61
2021/08/19 08:46:36;;;;;;;51.90;6.82;;;20.90;79.70;;;;;;5011111;28;20094;-61
2021/08/19 08:49:02;;;;;;;35.40;5.78;;;20.80;79.40;;;;;;5009173;28;20025;-60
2021/08/19 08:51:27;;;;;;;47.38;5.95;;;20.90;79.30;;;;;;5024637;28;20044;-61
2021/08/19 08:53:53;;;;;;;35.20;5.75;;;20.90;79.10;;;;;;5061610;28;20040;-61
2021/08/19 08:56:18;;;;;;;50.00;5.25;;;20.90;79.10;;;;;;5043383;28;20036;-61
2021/08/19 08:58:44;;;;;;;37.22;5.78;;;21.00;78.90;;;;;;5024970;28;20044;-62
2021/08/19 09:01:09;;;;;;;42.30;5.82;;;21.00;79.50;;;;;;5010655;28;20115;-61
2021/08/19 09:03:35;;;;;;;43.97;5.38;;;21.00;78.70;;;;;;5037658;28;20529;-59
2021/08/19 09:06:01;;;;;;;29.77;4.22;;;21.00;78.60;;;;;;5042741;28;20047;-61
2021/08/19 09:08:27;;;;;;;28.20;4.28;;;21.00;78.70;;;;;;5047950;28;20031;-60
2021/08/19 09:10:57;;;;;;;28.98;4.55;;;21.10;78.50;;;;;;5022939;28;20033;-61
2021/08/19 09:13:26;;;;;;;18.85;3.45;;;21.10;78.30;;;;;;5062334;28;20131;-61
2021/08/19 09:15:52;;;;;;;33.33;4.38;;;21.10;78.00;;;;;;5024349;28;20052;-61
2021/08/19 09:18:34;;;;;;;31.38;4.10;;;21.10;78.00;;;;;;5025327;28;20033;-61
2021/08/19 09:21:00;;;;;;;35.20;3.95;;;21.10;78.00;;;;;;5045103;28;20448;-60
2021/08/19 09:23:26;;;;;;;25.75;3.97;;;21.10;78.00;;;;;;5045422;28;20566;-60
2021/08/19 09:25:52;;;;;;;19.13;3.20;;;21.10;77.90;;;;;;5041327;28;20029;-59
2021/08/19 09:28:25;;;;;;;24.63;3.55;;;21.10;77.80;;;;;;5012475;28;20163;-59
2021/08/19 09:30:53;;;;;;;28.98;3.50;;;21.10;77.50;;;;;;5028184;28;20177;-59
2021/08/19 09:33:21;;;;;;;22.40;3.58;;;21.20;77.40;;;;;;5057335;28;20539;-60
2021/08/19 09:35:47;;;;;;;27.17;3.83;;;21.20;77.30;;;;;;5021776;28;20157;-60
2021/08/19 09:38:15;;;;;;;18.75;3.45;;;21.20;77.20;;;;;;5011762;28;20411;-60
2021/08/19 09:40:41;;;;;;;34.38;3.88;;;21.10;77.00;;;;;;5027262;28;20447;-60
2021/08/19 09:43:06;;;;;;;16.25;2.88;;;21.20;76.90;;;;;;5024932;28;20028;-60
2021/08/19 09:45:32;;;;;;;18.77;3.15;;;21.30;76.70;;;;;;5047314;28;20025;-59
2021/08/19 09:48:11;;;;;;;17.83;3.38;;;21.30;76.40;;;;;;5009696;28;20571;-60
2021/08/19 09:50:37;;;;;;;29.85;4.03;;;21.30;76.40;;;;;;5022753;28;20032;-60
2021/08/19 09:53:23;;;;;;;151.52;14.32;;;21.30;76.30;;;;;;5038595;28;20055;-60
2021/08/19 09:55:50;;;;;;;46.15;6.80;;;21.40;77.00;;;;;;5037596;28;20519;-60
2021/08/19 09:58:32;;;;;;;29.63;4.95;;;21.40;76.20;;;;;;5039692;28;20029;-60
2021/08/19 10:00:58;;;;;;;60.35;6.32;;;21.40;75.90;;;;;;5023221;28;20027;-60
2021/08/19 10:03:24;;;;;;;56.70;8.25;;;21.40;76.30;;;;;;5038956;28;20029;-60
2021/08/19 10:05:50;;;;;;;82.70;7.15;;;21.50;76.50;;;;;;5024388;28;20067;-60
2021/08/19 10:08:15;;;;;;;62.38;6.35;;;21.50;76.40;;;;;;5025800;28;20072;-60
2021/08/19 10:10:42;;;;;;;54.03;6.15;;;21.50;76.20;;;;;;5029278;28;20033;-60
2021/08/19 10:13:09;;;;;;;42.30;5.60;;;21.50;75.90;;;;;;5024806;28;20037;-60
2021/08/19 10:15:38;;;;;;;27.58;3.78;;;21.60;75.60;;;;;;5011932;28;20033;-60
2021/08/19 10:18:05;;;;;;;39.13;5.82;;;21.70;75.30;;;;;;5030029;28;20105;-60
2021/08/19 10:20:37;;;;;;;32.42;4.32;;;21.70;75.00;;;;;;5044365;28;20151;-60
2021/08/19 10:23:02;;;;;;;34.13;4.72;;;21.80;75.00;;;;;;5029689;28;20021;-60
2021/08/19 10:25:28;;;;;;;40.05;5.13;;;21.80;74.80;;;;;;5033728;28;20029;-60
2021/08/19 10:28:26;;;;;;;31.15;5.47;;;21.80;74.60;;;;;;5015051;28;20115;-60
2021/08/19 10:30:53;;;;;;;34.83;4.72;;;21.90;74.40;;;;;;4998961;28;20165;-60
2021/08/19 10:33:37;;;;;;;26.58;4.30;;;21.90;74.00;;;;;;5008884;28;20631;-60
2021/08/19 10:36:12;;;;;;;29.27;3.65;;;22.00;73.30;;;;;;5040639;28;20506;-60
2021/08/19 10:38:38;;;;;;;20.77;3.45;;;22.00;72.70;;;;;;5069430;28;20025;-60
2021/08/19 10:41:24;;;;;;;18.63;3.10;;;22.00;72.50;;;;;;5051100;28;20127;-60
2021/08/19 10:44:05;;;;;;;26.63;4.22;;;22.10;72.40;;;;;;5047249;28;20029;-60
2021/08/19 10:46:42;;;;;;;18.42;3.63;;;22.10;72.20;;;;;;5049008;28;20020;-60
2021/08/19 10:49:08;;;;;;;50.88;5.55;;;22.10;72.00;;;;;;5021474;28;20340;-60
2021/08/19 10:51:33;;;;;;;34.63;4.70;;;22.20;71.70;;;;;;5042968;28;20040;-60
2021/08/19 10:53:59;;;;;;;35.10;4.70;;;22.20;71.80;;;;;;5045211;28;20059;-60
2021/08/19 10:56:44;;;;;;;38.85;5.05;;;22.20;71.70;;;;;;5029703;28;20040;-59
2021/08/19 10:59:32;;;;;;;28.05;4.95;;;22.30;71.40;;;;;;5043258;28;20027;-60
2021/08/19 11:01:59;;;;;;;20.30;4.03;;;22.30;71.00;;;;;;5041159;28;20033;-60
2021/08/19 11:04:44;;;;;;;28.75;4.38;;;22.30;71.00;;;;;;5025351;28;20365;-60
2021/08/19 11:07:10;;;;;;;32.75;4.22;;;22.40;71.20;;;;;;5043894;28;20055;-60
2021/08/19 11:09:36;;;;;;;30.10;4.45;;;22.40;71.30;;;;;;5034108;28;20512;-60
2021/08/19 11:12:05;;;;;;;19.90;3.55;;;22.40;71.50;;;;;;5030713;28;20112;-60
2021/08/19 11:14:31;;;;;;;21.15;3.25;;;22.40;71.70;;;;;;5045026;28;20039;-60
2021/08/19 11:16:58;;;;;;;26.65;4.05;;;22.40;71.70;;;;;;5014425;28;20098;-60
2021/08/19 11:19:27;;;;;;;25.92;4.95;;;22.50;71.70;;;;;;5022547;28;20251;-60
2021/08/19 11:22:00;;;;;;;43.38;4.88;;;22.50;71.70;;;;;;5015844;28;20060;-60
2021/08/19 11:24:27;;;;;;;44.85;4.80;;;22.60;71.70;;;;;;5052487;28;20107;-61
2021/08/19 11:27:02;;;;;;;23.73;4.53;;;22.60;71.80;;;;;;5037193;28;20048;-60
2021/08/19 11:29:32;;;;;;;24.92;4.57;;;22.60;71.60;;;;;;5058084;28;20380;-60
2021/08/19 11:32:04;;;;;;;13.95;3.50;;;22.70;71.50;;;;;;5029004;28;20090;-60
2021/08/19 11:34:30;;;;;;;32.55;4.28;;;22.70;71.30;;;;;;5032879;28;20168;-60
2021/08/19 11:36:55;;;;;;;25.90;4.15;;;22.70;71.00;;;;;;5041668;28;20088;-60
2021/08/19 11:39:26;;;;;;;42.58;4.40;;;22.70;70.80;;;;;;5060192;28;20044;-60
2021/08/19 11:42:02;;;;;;;22.08;3.60;;;22.70;70.70;;;;;;5035880;28;20043;-60
2021/08/19 11:44:27;;;;;;;33.28;4.22;;;22.80;70.60;;;;;;5036034;28;20028;-60
2021/08/19 11:46:59;;;;;;;29.85;4.35;;;22.80;70.50;;;;;;5036188;28;20028;-60
2021/08/19 11:49:25;;;;;;;27.13;4.25;;;22.80;70.20;;;;;;5037910;28;20096;-60
2021/08/19 11:52:02;;;;;;;18.33;3.80;;;22.90;70.10;;;;;;5043707;28;20047;-60
2021/08/19 11:54:41;;;;;;;23.90;5.07;;;22.90;70.00;;;;;;5045193;28;20158;-60
2021/08/19 11:57:06;;;;;;;40.78;4.20;;;22.90;70.00;;;;;;5044106;28;20044;-60
2021/08/19 11:59:32;;;;;;;30.92;3.90;;;22.90;70.10;;;;;;5042019;28;20032;-60
2021/08/19 12:01:58;;;;;;;18.83;3.65;;;22.90;70.00;;;;;;5059554;28;20077;-59
2021/08/19 12:04:32;;;;;;;33.22;4.28;;;23.00;69.90;;;;;;5014666;28;20440;-59
2021/08/19 12:06:58;;;;;;;34.83;5.10;;;22.90;69.90;;;;;;5040562;28;20027;-60
2021/08/19 12:09:24;;;;;;;23.55;4.50;;;23.00;69.80;;;;;;5040014;28;20055;-59
2021/08/19 12:11:50;;;;;;;22.48;3.75;;;23.10;69.70;;;;;;5048714;28;20033;-60
2021/08/19 12:14:15;;;;;;;23.10;4.70;;;23.10;69.60;;;;;;5039981;28;20028;-60
2021/08/19 12:16:51;;;;;;;22.90;4.03;;;23.20;69.40;;;;;;5019796;28;20059;-60
2021/08/19 12:19:18;;;;;;;27.63;3.75;;;23.20;69.70;;;;;;5026822;28;20044;-59
2021/08/19 12:21:53;;;;;;;19.40;4.03;;;23.30;69.60;;;;;;5046135;28;20028;-60
2021/08/19 12:24:32;;;;;;;28.23;4.17;;;23.30;69.30;;;;;;5058905;28;20620;-59
2021/08/19 12:27:11;;;;;;;26.58;3.63;;;23.30;69.00;;;;;;5044087;28;20428;-59
2021/08/19 12:29:51;;;;;;;64.63;6.13;;;23.30;68.80;;;;;;5043003;28;20055;-60
2021/08/19 12:32:25;;;;;;;56.70;7.03;;;23.30;68.80;;;;;;5028922;28;20040;-60
2021/08/19 12:35:08;;;;;;;46.63;5.68;;;23.30;68.80;;;;;;5043986;28;20433;-60
2021/08/19 12:37:35;;;;;;;26.20;4.88;;;23.40;68.90;;;;;;5045076;28;20284;-60
2021/08/19 12:40:11;;;;;;;21.65;3.72;;;23.40;68.70;;;;;;5041525;28;20058;-60